Time;durP1;ratioP1;P1;durP2;ratioP2;P2;SDS_P1;SDS_P2;PMS_P1;PMS_P2;Temp;Humidity;BMP_temperature;BMP_pressure;BME280_temperature;BME280_humidity;BME280_pressure;Samples;Min_cycle;Max_cycle;Signal;HPM_P1;HPM_P2
2022/10/24 00:01:52;;;;;;;5.28;2.65;;;14.90;99.90;;;;;;6086545;23;20036;-88
2022/10/24 00:04:17;;;;;;;11.80;3.08;;;14.70;99.90;;;;;;6087308;23;20502;-87
2022/10/24 00:06:43;;;;;;;7.45;2.60;;;14.70;99.90;;;;;;6086153;23;20018;-87
2022/10/24 00:09:09;;;;;;;4.82;2.30;;;14.70;99.90;;;;;;6109648;23;20079;-88
2022/10/24 00:11:41;;;;;;;4.32;2.28;;;14.70;99.90;;;;;;6108729;23;20084;-88
2022/10/24 00:14:07;;;;;;;6.78;2.25;;;14.80;99.90;;;;;;6085691;23;20044;-87
2022/10/24 00:16:34;;;;;;;6.82;2.08;;;14.70;99.90;;;;;;6085405;23;20405;-88
2022/10/24 00:19:00;;;;;;;5.35;1.92;;;14.60;99.90;;;;;;6110499;23;20308;-88
2022/10/24 00:21:26;;;;;;;6.30;2.10;;;14.70;99.90;;;;;;6085865;23;20470;-87
2022/10/24 00:23:51;;;;;;;9.35;2.22;;;14.60;99.90;;;;;;6107674;23;20029;-88
2022/10/24 00:26:17;;;;;;;6.65;2.22;;;14.70;99.90;;;;;;6107636;23;20097;-87
2022/10/24 00:28:43;;;;;;;6.90;2.10;;;14.60;99.90;;;;;;6085692;23;20013;-87
2022/10/24 00:31:13;;;;;;;6.18;2.45;;;14.50;99.90;;;;;;6085845;23;20133;-87
2022/10/24 00:33:39;;;;;;;3.30;2.17;;;14.40;99.90;;;;;;6087553;23;20033;-88
2022/10/24 00:36:14;;;;;;;5.97;1.98;;;14.60;99.90;;;;;;6085420;23;20013;-88
2022/10/24 00:38:40;;;;;;;4.93;1.95;;;14.50;99.90;;;;;;6084491;23;20022;-87
2022/10/24 00:41:05;;;;;;;7.32;2.10;;;14.50;99.90;;;;;;6107821;23;20168;-88
2022/10/24 00:43:31;;;;;;;5.25;2.00;;;14.60;99.90;;;;;;6086453;23;20013;-87
2022/10/24 00:46:01;;;;;;;6.50;1.80;;;14.60;99.90;;;;;;6085691;23;20397;-87
2022/10/24 00:48:48;;;;;;;5.18;1.83;;;14.60;99.90;;;;;;6110233;23;20348;-87
2022/10/24 00:51:23;;;;;;;4.63;1.98;;;14.60;99.90;;;;;;6086082;23;20101;-87
2022/10/24 00:53:52;;;;;;;6.03;1.83;;;14.70;99.90;;;;;;6110134;23;20026;-87
2022/10/24 00:56:21;;;;;;;4.35;1.58;;;14.70;99.90;;;;;;6084499;23;20339;-87
2022/10/24 00:58:48;;;;;;;6.35;1.70;;;14.80;99.90;;;;;;6086342;23;20481;-88
2022/10/24 01:01:17;;;;;;;6.35;1.95;;;14.70;99.90;;;;;;6085811;23;20036;-88
2022/10/24 01:03:43;;;;;;;7.72;2.00;;;14.60;99.90;;;;;;6086304;23;20014;-86
2022/10/24 01:06:27;;;;;;;5.05;2.00;;;14.60;99.90;;;;;;6086285;23;20093;-88
2022/10/24 01:09:28;;;;;;;5.23;2.23;;;14.50;99.90;;;;;;6084713;23;20073;-89
2022/10/24 01:12:13;;;;;;;6.22;1.83;;;14.60;99.90;;;;;;6016652;23;20017;-87
2022/10/24 01:14:47;;;;;;;6.53;1.88;;;14.70;99.90;;;;;;6085287;23;20651;-88
2022/10/24 01:17:50;;;;;;;13.20;2.45;;;14.60;99.90;;;;;;6085545;23;20518;-88
2022/10/24 01:20:39;;;;;;;5.90;1.88;;;14.80;99.90;;;;;;6084169;23;20017;-88
2022/10/24 01:23:26;;;;;;;4.57;2.25;;;14.70;99.90;;;;;;6018593;23;20136;-88
2022/10/24 01:26:37;;;;;;;3.88;2.10;;;14.80;99.90;;;;;;6083664;23;20072;-87
2022/10/24 01:29:10;;;;;;;5.82;1.95;;;14.80;99.90;;;;;;6085144;23;20355;-88
2022/10/24 01:32:11;;;;;;;4.63;2.47;;;14.90;99.90;;;;;;6108679;23;20018;-88
2022/10/24 01:34:45;;;;;;;4.00;1.98;;;14.80;99.90;;;;;;6009015;23;20338;-88
2022/10/24 01:37:26;;;;;;;6.15;2.25;;;14.80;99.90;;;;;;6108473;23;20029;-86
2022/10/24 01:39:59;;;;;;;10.07;2.40;;;14.90;99.90;;;;;;6082837;23;20018;-87
2022/10/24 01:42:28;;;;;;;6.22;2.70;;;15.00;99.90;;;;;;6083700;23;20424;-88
2022/10/24 01:44:59;;;;;;;7.15;2.53;;;15.00;99.90;;;;;;6109346;23;20037;-86
2022/10/24 01:47:36;;;;;;;8.43;2.47;;;15.00;99.90;;;;;;6110484;23;20053;-88
2022/10/24 01:50:09;;;;;;;7.15;2.67;;;15.10;99.90;;;;;;6109488;23;20183;-86
2022/10/24 01:52:38;;;;;;;5.63;2.50;;;15.10;99.90;;;;;;6110096;23;20014;-88
2022/10/24 01:55:05;;;;;;;7.15;2.67;;;15.00;99.90;;;;;;6083378;23;20376;-88
2022/10/24 01:57:33;;;;;;;7.45;2.50;;;15.00;99.90;;;;;;6084256;23;20014;-87
2022/10/24 02:00:00;;;;;;;6.38;2.83;;;15.20;99.90;;;;;;6084573;23;20026;-87
2022/10/24 02:02:25;;;;;;;9.02;2.50;;;15.20;99.90;;;;;;6085246;23;20243;-87
2022/10/24 02:04:57;;;;;;;9.50;3.17;;;15.30;99.90;;;;;;6085000;23;20091;-86
2022/10/24 02:07:24;;;;;;;8.35;2.83;;;15.20;99.90;;;;;;6083359;23;20535;-88
2022/10/24 02:09:56;;;;;;;8.00;2.88;;;15.20;99.90;;;;;;6083591;23;20018;-86
2022/10/24 02:12:24;;;;;;;7.65;2.70;;;15.20;99.90;;;;;;6082577;23;20013;-87
2022/10/24 02:15:00;;;;;;;6.70;3.00;;;15.30;99.90;;;;;;6108281;23;20021;-87
2022/10/24 02:17:26;;;;;;;7.93;2.95;;;15.30;99.90;;;;;;6084193;23;20022;-87
2022/10/24 02:19:52;;;;;;;8.40;3.13;;;15.30;99.90;;;;;;6083969;23;20020;-87
2022/10/24 02:22:28;;;;;;;6.57;2.70;;;15.30;99.90;;;;;;6083887;23;20018;-86
2022/10/24 02:25:05;;;;;;;8.32;2.78;;;15.20;99.90;;;;;;6083034;23;20573;-87
2022/10/24 02:27:45;;;;;;;5.97;2.60;;;15.20;99.90;;;;;;6083364;23;20101;-86
2022/10/24 02:30:14;;;;;;;7.15;2.67;;;15.10;99.90;;;;;;6081978;23;20527;-87
2022/10/24 02:32:45;;;;;;;6.65;2.70;;;15.30;99.90;;;;;;6109967;23;20025;-86
2022/10/24 02:35:13;;;;;;;6.55;2.60;;;15.20;99.90;;;;;;6083625;23;20043;-87
2022/10/24 02:37:43;;;;;;;8.52;2.85;;;15.20;99.90;;;;;;6109142;23;20024;-87
2022/10/24 02:40:12;;;;;;;9.10;2.70;;;15.20;99.90;;;;;;6107953;23;20565;-87
2022/10/24 02:42:40;;;;;;;7.45;2.60;;;15.20;99.90;;;;;;6083670;23;20271;-87
2022/10/24 02:45:08;;;;;;;8.85;2.78;;;15.20;99.90;;;;;;6084433;23;20064;-87
2022/10/24 02:47:34;;;;;;;13.80;3.25;;;15.20;99.90;;;;;;6085181;23;20096;-87
2022/10/24 02:50:00;;;;;;;9.52;2.55;;;15.20;99.90;;;;;;6109251;23;20407;-87
2022/10/24 02:52:29;;;;;;;4.82;2.22;;;15.20;99.90;;;;;;6084594;23;20332;-87
2022/10/24 02:54:55;;;;;;;11.10;2.67;;;15.30;99.90;;;;;;6082980;23;20534;-87
2022/10/24 02:57:22;;;;;;;7.07;2.50;;;15.30;99.90;;;;;;6083549;23;20013;-86
2022/10/24 02:59:48;;;;;;;8.65;2.55;;;15.30;99.90;;;;;;6108432;23;20452;-88
2022/10/24 03:02:14;;;;;;;7.28;2.30;;;15.20;99.90;;;;;;6083535;23;20355;-87
2022/10/24 03:04:40;;;;;;;5.85;2.60;;;15.20;99.90;;;;;;6085767;23;20018;-86
2022/10/24 03:07:06;;;;;;;8.00;2.40;;;15.20;99.90;;;;;;6107315;23;20044;-88
2022/10/24 03:09:35;;;;;;;10.38;2.70;;;15.20;99.90;;;;;;6082688;23;20017;-86
2022/10/24 03:12:00;;;;;;;7.38;2.75;;;15.10;99.90;;;;;;6107685;23;20166;-86
2022/10/24 03:14:26;;;;;;;5.20;2.28;;;15.10;99.90;;;;;;6108014;23;20022;-86
2022/10/24 03:16:51;;;;;;;5.78;2.28;;;15.30;99.90;;;;;;6084727;23;20018;-88
2022/10/24 03:19:20;;;;;;;6.82;2.63;;;15.30;99.90;;;;;;6084293;23;20010;-88
2022/10/24 03:21:46;;;;;;;6.05;2.50;;;15.30;99.90;;;;;;6083773;23;20091;-86
2022/10/24 03:24:11;;;;;;;5.97;2.80;;;15.30;99.90;;;;;;6083161;23;20018;-87
2022/10/24 03:26:37;;;;;;;8.70;2.45;;;15.30;99.90;;;;;;6106784;23;20100;-86
2022/10/24 03:29:03;;;;;;;6.22;2.47;;;15.30;99.90;;;;;;6084530;23;20347;-86
2022/10/24 03:31:30;;;;;;;5.78;2.30;;;15.30;99.90;;;;;;6108668;23;20295;-87
2022/10/24 03:33:56;;;;;;;5.43;2.80;;;15.30;99.90;;;;;;6084587;23;20355;-87
2022/10/24 03:36:21;;;;;;;6.53;2.60;;;15.20;99.90;;;;;;6085473;23;20446;-87
2022/10/24 03:38:47;;;;;;;4.78;2.30;;;15.20;99.90;;;;;;6089828;23;20017;-87
2022/10/24 03:41:13;;;;;;;5.72;2.58;;;15.10;99.90;;;;;;6087067;23;20451;-86
2022/10/24 03:43:41;;;;;;;8.25;2.58;;;15.20;99.90;;;;;;6089802;23;20021;-87
2022/10/24 03:46:07;;;;;;;6.97;2.40;;;15.20;99.90;;;;;;6089676;23;20017;-88
2022/10/24 03:48:33;;;;;;;8.73;2.70;;;15.20;99.90;;;;;;6090134;23;20367;-88
2022/10/24 03:51:01;;;;;;;7.00;2.65;;;15.20;99.90;;;;;;6089553;23;20013;-87
2022/10/24 03:53:27;;;;;;;10.88;3.03;;;15.20;99.90;;;;;;6088138;23;20470;-88
2022/10/24 03:55:55;;;;;;;11.15;2.78;;;15.30;99.90;;;;;;6063603;23;20017;-87
2022/10/24 03:58:21;;;;;;;6.50;2.42;;;15.30;99.90;;;;;;6090604;23;20010;-86
2022/10/24 04:00:47;;;;;;;10.80;2.95;;;15.20;99.90;;;;;;6090605;23;20013;-88
2022/10/24 04:03:15;;;;;;;9.48;2.70;;;15.30;99.90;;;;;;6090989;23;20100;-88
2022/10/24 04:05:41;;;;;;;10.68;2.80;;;15.20;99.90;;;;;;6090215;23;20064;-87
2022/10/24 04:08:07;;;;;;;8.68;2.85;;;15.20;99.90;;;;;;6090920;23;20040;-88
2022/10/24 04:10:32;;;;;;;6.28;2.58;;;15.20;99.90;;;;;;6087461;23;20056;-87
2022/10/24 04:13:01;;;;;;;8.35;2.75;;;15.20;99.90;;;;;;6115395;23;20195;-87
2022/10/24 04:15:27;;;;;;;6.78;3.03;;;15.00;99.90;;;;;;6114089;23;20088;-87
2022/10/24 04:17:53;;;;;;;5.78;3.00;;;15.00;99.90;;;;;;6090788;23;20018;-87
2022/10/24 04:20:21;;;;;;;6.97;2.70;;;14.90;99.90;;;;;;6115067;23;20036;-87
2022/10/24 04:22:46;;;;;;;7.95;2.95;;;14.80;99.90;;;;;;6090151;23;20017;-86
2022/10/24 04:25:12;;;;;;;9.75;2.63;;;14.80;99.90;;;;;;6088211;23;20025;-87
2022/10/24 04:27:41;;;;;;;12.75;2.90;;;14.70;99.90;;;;;;6089710;23;20028;-87
2022/10/24 04:30:08;;;;;;;7.72;2.92;;;14.60;99.90;;;;;;6090110;23;20274;-88
2022/10/24 04:32:34;;;;;;;5.55;2.50;;;14.60;99.90;;;;;;6091161;23;20502;-87
2022/10/24 04:35:01;;;;;;;7.82;2.90;;;14.50;99.90;;;;;;6091149;23;20093;-87
2022/10/24 04:37:27;;;;;;;6.22;2.33;;;14.60;99.90;;;;;;6086185;23;20368;-87
2022/10/24 04:39:53;;;;;;;6.65;2.65;;;14.50;99.90;;;;;;6109484;23;20026;-87
2022/10/24 04:42:20;;;;;;;6.57;2.70;;;14.50;99.90;;;;;;6084289;23;20010;-88
2022/10/24 04:44:46;;;;;;;7.40;2.67;;;14.60;99.90;;;;;;6085176;23;20037;-86
2022/10/24 04:47:12;;;;;;;6.32;2.20;;;14.50;99.90;;;;;;6086850;23;20029;-88
2022/10/24 04:49:37;;;;;;;6.28;2.40;;;14.50;99.90;;;;;;6086067;23;20014;-87
2022/10/24 04:52:03;;;;;;;7.25;2.42;;;14.50;99.90;;;;;;6109415;23;20053;-86
2022/10/24 04:54:29;;;;;;;10.73;2.85;;;14.60;99.90;;;;;;6084386;23;20034;-86
2022/10/24 04:56:55;;;;;;;5.10;2.35;;;14.40;99.90;;;;;;6084050;23;20014;-88
2022/10/24 04:59:20;;;;;;;6.18;2.40;;;14.40;99.90;;;;;;6109817;23;20014;-87
2022/10/24 05:01:49;;;;;;;7.43;2.60;;;14.40;99.90;;;;;;6085511;23;20010;-88
2022/10/24 05:04:15;;;;;;;11.80;2.60;;;14.40;99.90;;;;;;6085189;23;20022;-87
2022/10/24 05:06:40;;;;;;;6.20;2.30;;;14.30;99.90;;;;;;6085541;23;20014;-87
2022/10/24 05:09:06;;;;;;;6.88;2.40;;;14.30;99.90;;;;;;6083361;23;20026;-86
2022/10/24 05:11:32;;;;;;;9.43;2.35;;;14.30;99.90;;;;;;6083600;23;20331;-86
2022/10/24 05:13:57;;;;;;;9.15;2.72;;;14.30;99.90;;;;;;6109846;23;20022;-88
2022/10/24 05:16:29;;;;;;;5.53;2.42;;;14.30;99.90;;;;;;6109321;23;20009;-87
2022/10/24 05:18:54;;;;;;;11.95;2.60;;;14.20;99.90;;;;;;6086888;23;20602;-87
2022/10/24 05:21:20;;;;;;;7.32;2.60;;;14.20;99.90;;;;;;6085355;23;20061;-87
2022/10/24 05:23:46;;;;;;;11.18;2.70;;;14.20;99.90;;;;;;6084285;23;20291;-87
2022/10/24 05:26:11;;;;;;;8.05;2.40;;;14.20;99.90;;;;;;6082996;23;20081;-87
2022/10/24 05:28:37;;;;;;;10.77;2.70;;;14.20;99.90;;;;;;6085013;23;20732;-86
2022/10/24 05:31:03;;;;;;;7.90;2.40;;;14.20;99.90;;;;;;6085716;23;20340;-87
2022/10/24 05:33:32;;;;;;;5.80;2.28;;;14.20;99.90;;;;;;6110827;23;20352;-87
2022/10/24 05:35:57;;;;;;;4.07;1.92;;;14.20;99.90;;;;;;6084911;23;20020;-86
2022/10/24 05:38:23;;;;;;;7.22;2.60;;;14.20;99.90;;;;;;6084474;23;20097;-86
2022/10/24 05:40:50;;;;;;;7.10;2.30;;;14.20;99.90;;;;;;6083075;23;20017;-87
2022/10/24 05:43:16;;;;;;;5.97;2.33;;;14.10;99.90;;;;;;6085491;23;20231;-87
2022/10/24 05:45:42;;;;;;;4.60;2.10;;;14.20;99.90;;;;;;6084026;23;20203;-87
2022/10/24 05:48:08;;;;;;;8.27;2.10;;;14.20;99.90;;;;;;6110154;23;20454;-87
2022/10/24 05:50:33;;;;;;;6.38;2.10;;;14.20;99.90;;;;;;6108715;23;20100;-87
2022/10/24 05:53:00;;;;;;;6.07;1.88;;;14.30;99.90;;;;;;6084879;23;20016;-87
2022/10/24 05:55:26;;;;;;;8.43;2.20;;;14.30;99.90;;;;;;6082308;23;20464;-87
2022/10/24 05:57:52;;;;;;;7.72;2.00;;;14.30;99.90;;;;;;6109028;23;20021;-87
2022/10/24 06:00:18;;;;;;;3.28;1.70;;;14.40;99.90;;;;;;6110211;23;20010;-86
2022/10/24 06:02:45;;;;;;;4.38;2.20;;;14.50;99.90;;;;;;6085050;23;20402;-88
2022/10/24 06:05:11;;;;;;;6.00;2.00;;;14.50;99.90;;;;;;6110795;23;20478;-87
2022/10/24 06:07:37;;;;;;;3.95;2.00;;;14.50;99.90;;;;;;6084544;23;20420;-87
2022/10/24 06:10:04;;;;;;;5.82;1.80;;;14.60;99.90;;;;;;6108204;23;20017;-88
2022/10/24 06:12:30;;;;;;;10.25;2.40;;;14.60;99.90;;;;;;6084784;23;20022;-86
2022/10/24 06:14:57;;;;;;;6.72;1.90;;;14.60;99.90;;;;;;6085370;23;20025;-88
2022/10/24 06:17:23;;;;;;;7.95;2.38;;;14.60;99.90;;;;;;6109710;23;20052;-87
2022/10/24 06:19:49;;;;;;;6.97;2.15;;;14.60;99.90;;;;;;6085007;23;20029;-86
2022/10/24 06:22:16;;;;;;;7.22;1.98;;;14.70;99.90;;;;;;6083862;23;20014;-88
2022/10/24 06:24:41;;;;;;;8.52;1.88;;;14.80;99.90;;;;;;6083756;23;20348;-87
2022/10/24 06:27:11;;;;;;;6.63;1.90;;;14.80;99.90;;;;;;6082655;23;20043;-88
2022/10/24 06:29:36;;;;;;;6.70;2.63;;;14.70;99.90;;;;;;6084556;23;20358;-88
2022/10/24 06:32:02;;;;;;;7.45;1.90;;;14.80;99.90;;;;;;6084391;23;20093;-88
2022/10/24 06:34:28;;;;;;;8.23;1.80;;;14.80;99.90;;;;;;6085756;23;20540;-87
2022/10/24 06:36:53;;;;;;;5.82;1.80;;;14.70;99.90;;;;;;6088417;23;20426;-87
2022/10/24 06:39:19;;;;;;;6.65;2.03;;;14.70;99.90;;;;;;6113188;23;20120;-86
2022/10/24 06:41:45;;;;;;;9.10;2.45;;;14.70;99.90;;;;;;6111156;23;20569;-87
2022/10/24 06:44:14;;;;;;;6.22;1.58;;;14.70;99.90;;;;;;6090072;23;20069;-89
2022/10/24 06:46:40;;;;;;;6.53;2.00;;;14.70;99.90;;;;;;6088845;23;20018;-87
2022/10/24 06:49:06;;;;;;;8.38;1.90;;;14.60;99.90;;;;;;6090557;23;20517;-87
2022/10/24 06:51:32;;;;;;;7.80;2.25;;;14.70;99.90;;;;;;6088983;23;20021;-88
2022/10/24 06:53:58;;;;;;;8.32;2.13;;;14.70;99.90;;;;;;6112349;23;20027;-87
2022/10/24 06:56:24;;;;;;;6.35;1.65;;;14.70;99.90;;;;;;6087437;23;20071;-88
2022/10/24 06:58:50;;;;;;;5.50;1.63;;;14.80;99.90;;;;;;6089168;23;20009;-88
2022/10/24 07:01:18;;;;;;;8.07;1.67;;;14.80;99.90;;;;;;6088475;23;20014;-88
2022/10/24 07:03:44;;;;;;;8.85;1.80;;;14.90;99.90;;;;;;6089405;23;20013;-88
2022/10/24 07:06:16;;;;;;;6.90;1.67;;;14.80;99.90;;;;;;6089980;23;20018;-87
2022/10/24 07:08:42;;;;;;;8.13;1.95;;;15.00;99.90;;;;;;6089008;23;20059;-86
2022/10/24 07:11:08;;;;;;;4.25;1.75;;;15.10;99.90;;;;;;6087058;23;20010;-87
2022/10/24 07:13:34;;;;;;;10.23;1.90;;;15.20;99.90;;;;;;6091222;23;20093;-87
2022/10/24 07:15:59;;;;;;;7.28;1.70;;;15.20;99.90;;;;;;6088069;23;20024;-87
2022/10/24 07:18:25;;;;;;;6.07;1.90;;;15.30;99.90;;;;;;6090946;23;20312;-87
2022/10/24 07:20:51;;;;;;;7.53;1.67;;;15.30;99.90;;;;;;6113561;23;20017;-88
2022/10/24 07:23:17;;;;;;;7.70;1.88;;;15.30;99.90;;;;;;6088848;23;20027;-86
2022/10/24 07:25:44;;;;;;;5.78;1.60;;;15.40;99.90;;;;;;6110356;23;20180;-87
2022/10/24 07:28:10;;;;;;;4.45;1.92;;;15.50;99.90;;;;;;6087720;23;20285;-88
2022/10/24 07:30:36;;;;;;;9.32;1.92;;;15.50;99.90;;;;;;6091110;23;20014;-87
2022/10/24 07:33:02;;;;;;;3.72;1.50;;;15.40;99.90;;;;;;6092368;23;20320;-86
2022/10/24 07:35:28;;;;;;;6.72;1.70;;;15.40;99.90;;;;;;6091857;23;20067;-87
2022/10/24 07:37:54;;;;;;;4.93;1.67;;;15.40;99.90;;;;;;6090621;23;20439;-87
2022/10/24 07:40:23;;;;;;;4.72;1.88;;;15.50;99.90;;;;;;6088573;23;20032;-86
2022/10/24 07:42:48;;;;;;;7.13;2.10;;;15.60;99.90;;;;;;6091218;23;20743;-86
2022/10/24 07:45:17;;;;;;;7.93;1.48;;;15.60;99.90;;;;;;6091035;23;20274;-87
2022/10/24 07:47:43;;;;;;;5.68;1.80;;;15.70;99.90;;;;;;6091581;23;20024;-87
2022/10/24 07:50:08;;;;;;;5.07;1.65;;;15.80;99.90;;;;;;6092557;23;20363;-87
2022/10/24 07:52:34;;;;;;;6.50;1.70;;;15.90;99.90;;;;;;6091630;23;20049;-86
2022/10/24 07:54:59;;;;;;;6.13;1.88;;;15.90;99.90;;;;;;6113639;23;20017;-87
2022/10/24 07:57:25;;;;;;;5.53;1.85;;;16.00;99.90;;;;;;6091029;23;20013;-87
2022/10/24 07:59:51;;;;;;;5.75;2.00;;;16.10;99.90;;;;;;6091262;23;20131;-87
2022/10/24 08:02:17;;;;;;;5.78;1.88;;;16.20;99.90;;;;;;6091736;23;20204;-87
2022/10/24 08:04:46;;;;;;;4.78;1.60;;;16.10;99.90;;;;;;6090737;23;20051;-87
2022/10/24 08:07:14;;;;;;;7.20;1.88;;;16.10;99.90;;;;;;6090561;23;20383;-86
2022/10/24 08:09:43;;;;;;;6.15;1.70;;;16.10;99.90;;;;;;6090564;23;20092;-88
2022/10/24 08:12:09;;;;;;;10.10;2.33;;;16.10;99.90;;;;;;6090566;23;20123;-87
2022/10/24 08:14:37;;;;;;;11.68;2.05;;;16.10;99.90;;;;;;6092087;23;20287;-86
2022/10/24 08:17:03;;;;;;;6.07;1.65;;;16.00;99.90;;;;;;6091662;23;20422;-87
2022/10/24 08:19:29;;;;;;;4.35;1.67;;;16.20;99.90;;;;;;6114931;23;20016;-87
2022/10/24 08:21:55;;;;;;;4.95;1.52;;;16.30;99.90;;;;;;6116301;23;20049;-87
2022/10/24 08:24:21;;;;;;;6.13;2.28;;;16.30;99.90;;;;;;6115016;23;20024;-87
2022/10/24 08:26:47;;;;;;;5.85;1.67;;;16.30;99.90;;;;;;6113667;23;20080;-87
2022/10/24 08:29:20;;;;;;;5.60;1.70;;;16.30;99.90;;;;;;6091517;23;20470;-87
2022/10/24 08:31:49;;;;;;;6.45;1.70;;;16.30;99.90;;;;;;6091027;23;20071;-86
2022/10/24 08:34:15;;;;;;;8.77;1.88;;;16.30;99.90;;;;;;6089806;23;20018;-87
2022/10/24 08:36:41;;;;;;;5.00;1.60;;;16.30;99.90;;;;;;6113405;23;20009;-88
2022/10/24 08:39:08;;;;;;;4.72;1.42;;;16.30;99.90;;;;;;6112952;23;20021;-87
2022/10/24 08:41:42;;;;;;;6.72;1.70;;;16.30;99.90;;;;;;6086805;23;20113;-87
2022/10/24 08:44:17;;;;;;;5.50;1.77;;;16.30;99.90;;;;;;6090471;23;20024;-87
2022/10/24 08:47:04;;;;;;;11.18;1.75;;;16.30;99.90;;;;;;6089711;23;20071;-87
2022/10/24 08:49:38;;;;;;;4.38;1.40;;;16.30;99.90;;;;;;6114673;23;20017;-88
2022/10/24 08:52:39;;;;;;;7.47;1.60;;;16.30;99.90;;;;;;6090110;23;20435;-87
2022/10/24 08:55:21;;;;;;;5.03;1.15;;;16.50;99.90;;;;;;6088216;23;20017;-87
2022/10/24 08:57:52;;;;;;;8.55;1.35;;;16.50;99.90;;;;;;6089946;23;20072;-87
2022/10/24 09:00:21;;;;;;;5.57;1.45;;;16.30;99.90;;;;;;6090573;23;20128;-86
2022/10/24 09:03:21;;;;;;;5.22;1.60;;;16.30;99.90;;;;;;6090395;23;20057;-87
2022/10/24 09:05:53;;;;;;;5.82;1.20;;;16.40;99.90;;;;;;6078068;23;20032;-87
2022/10/24 09:08:44;;;;;;;8.60;1.75;;;16.70;99.90;;;;;;6089818;23;20088;-86
2022/10/24 09:11:40;;;;;;;6.65;1.50;;;16.70;99.90;;;;;;6089668;23;20383;-86
2022/10/24 09:14:15;;;;;;;4.25;1.60;;;16.80;99.90;;;;;;6114118;23;20018;-86
2022/10/24 09:16:45;;;;;;;5.68;1.33;;;16.90;71.50;;;;;;6089789;23;20314;-87
2022/10/24 09:19:18;;;;;;;9.82;1.48;;;16.90;1.00;;;;;;6090401;23;20017;-86
2022/10/24 09:21:44;;;;;;;5.82;1.42;;;16.90;1.00;;;;;;6113418;23;20014;-86
2022/10/24 09:24:19;;;;;;;6.55;1.55;;;16.90;1.00;;;;;;6089635;23;20025;-86
2022/10/24 09:26:46;;;;;;;3.83;1.63;;;16.80;99.90;;;;;;6088849;23;20407;-86
2022/10/24 09:29:11;;;;;;;10.80;1.85;;;16.80;1.00;;;;;;6090103;23;20557;-86
2022/10/24 09:31:37;;;;;;;8.60;1.73;;;16.70;1.00;;;;;;6089294;23;20013;-87
2022/10/24 09:34:06;;;;;;;4.57;1.65;;;16.80;99.90;;;;;;6088660;23;20087;-87
2022/10/24 09:36:31;;;;;;;7.72;1.63;;;16.90;1.00;;;;;;6090483;23;20116;-86
2022/10/24 09:39:25;;;;;;;7.00;1.67;;;17.00;1.00;;;;;;6060377;23;20453;-86
2022/10/24 09:41:51;;;;;;;7.78;1.30;;;17.00;99.90;;;;;;6059550;23;20332;-86
2022/10/24 09:44:44;;;;;;;7.18;1.70;;;16.80;99.90;;;;;;6060476;23;20033;-86
2022/10/24 09:47:24;;;;;;;4.30;2.10;;;17.00;99.90;;;;;;6057844;23;20014;-88
2022/10/24 09:49:54;;;;;;;4.63;1.50;;;17.30;99.90;;;;;;6062117;23;20080;-86
2022/10/24 09:52:27;;;;;;;6.40;1.63;;;17.30;1.00;;;;;;6060451;23;20014;-86
2022/10/24 09:55:27;;;;;;;5.28;1.52;;;17.30;99.90;;;;;;6058709;23;20029;-86
2022/10/24 09:58:02;;;;;;;5.50;1.70;;;17.30;1.00;;;;;;6060414;23;20082;-86
2022/10/24 10:00:35;;;;;;;6.15;1.50;;;17.40;40.50;;;;;;6060145;23;20025;-87
2022/10/24 10:03:01;;;;;;;5.05;1.30;;;17.20;99.90;;;;;;6061531;23;20431;-87
2022/10/24 10:05:41;;;;;;;8.18;1.45;;;17.30;1.00;;;;;;6084099;23;20088;-87
2022/10/24 10:08:19;;;;;;;8.18;1.45;;;17.30;99.90;;;;;;6061199;23;20026;-86
2022/10/24 10:10:58;;;;;;;6.97;1.60;;;17.10;99.90;;;;;;6058704;23;20022;-86
2022/10/24 10:13:26;;;;;;;7.03;1.40;;;17.10;99.90;;;;;;6060961;23;20340;-87
2022/10/24 10:15:55;;;;;;;5.93;1.92;;;17.10;99.90;;;;;;6060432;23;20021;-87
2022/10/24 10:18:38;;;;;;;6.40;1.88;;;17.20;1.00;;;;;;6061125;23;20010;-87
2022/10/24 10:21:20;;;;;;;5.32;1.58;;;17.30;99.90;;;;;;6060689;23;20018;-86
2022/10/24 10:23:56;;;;;;;5.50;1.58;;;17.50;1.00;;;;;;6059685;23;20069;-86
2022/10/24 10:26:43;;;;;;;5.13;1.60;;;17.60;99.90;;;;;;6058016;23;20014;-86
2022/10/24 10:29:18;;;;;;;3.58;1.17;;;17.60;1.00;;;;;;6062437;23;20166;-86
2022/10/24 10:31:46;;;;;;;;;;;17.60;99.90;;;;;;6060052;23;20014;-87
2022/10/24 10:34:34;;;;;;;4.28;1.38;;;17.70;99.90;;;;;;6085005;23;19928;-87
2022/10/24 10:37:21;;;;;;;6.03;1.20;;;17.70;99.90;;;;;;6060310;23;20022;-86
2022/10/24 10:40:28;;;;;;;6.40;1.55;;;17.90;99.90;;;;;;6082817;23;20018;-87
2022/10/24 10:43:17;;;;;;;7.00;1.75;;;18.00;99.90;;;;;;6082064;23;20014;-88
2022/10/24 10:45:50;;;;;;;9.20;1.48;;;17.70;99.90;;;;;;6084588;23;20096;-87
2022/10/24 10:48:45;;;;;;;4.95;1.27;;;17.70;71.20;;;;;;6085016;23;20018;-86
2022/10/24 10:51:32;;;;;;;5.32;1.48;;;17.60;41.10;;;;;;6085038;23;20018;-86
2022/10/24 10:54:04;;;;;;;5.00;1.30;;;17.40;99.90;;;;;;6084576;23;20079;-86
2022/10/24 10:56:48;;;;;;;6.28;1.33;;;17.60;99.90;;;;;;6083701;23;20215;-86
2022/10/24 10:59:37;;;;;;;4.45;1.40;;;17.40;61.10;;;;;;6085560;23;20033;-86
2022/10/24 11:02:12;;;;;;;4.40;1.13;;;17.40;99.90;;;;;;6085874;23;20053;-86
2022/10/24 11:05:17;;;;;;;3.67;1.13;;;17.40;99.90;;;;;;6086807;23;20072;-86
2022/10/24 11:07:47;;;;;;;7.03;1.50;;;17.30;99.90;;;;;;5971290;23;20027;-86
2022/10/24 11:10:21;;;;;;;4.13;1.20;;;17.30;99.90;;;;;;6083813;23;20018;-86
2022/10/24 11:12:47;;;;;;;3.27;1.30;;;17.40;1.00;;;;;;6086144;23;20025;-85
2022/10/24 11:15:28;;;;;;;8.45;1.30;;;17.20;2.30;;;;;;6111015;23;20099;-84
2022/10/24 11:18:15;;;;;;;5.38;1.63;;;17.20;99.90;;;;;;6088170;23;20093;-85
2022/10/24 11:20:47;;;;;;;3.53;1.40;;;17.40;1.00;;;;;;6085759;23;20483;-84
2022/10/24 11:23:28;;;;;;;5.18;1.30;;;17.80;80.70;;;;;;6086226;23;20084;-84
2022/10/24 11:26:03;;;;;;;6.97;1.35;;;17.70;1.00;;;;;;6084626;23;20022;-85
2022/10/24 11:28:40;;;;;;;3.95;1.30;;;17.60;99.90;;;;;;6087233;23;20014;-84
2022/10/24 11:31:42;;;;;;;5.72;1.50;;;17.60;99.90;;;;;;6087898;23;20022;-84
2022/10/24 11:34:32;;;;;;;5.32;1.50;;;17.30;99.90;;;;;;6033392;23;20018;-84
2022/10/24 11:37:23;;;;;;;4.63;1.30;;;17.30;99.90;;;;;;6085323;23;20026;-84
2022/10/24 11:39:59;;;;;;;9.88;1.38;;;17.40;99.90;;;;;;6108844;23;20028;-84
2022/10/24 11:42:58;;;;;;;6.38;1.50;;;17.40;99.90;;;;;;6085567;23;20021;-85
2022/10/24 11:45:30;;;;;;;7.10;1.30;;;17.40;99.90;;;;;;6086259;23;20044;-84
2022/10/24 11:48:35;;;;;;;5.25;1.10;;;17.30;99.90;;;;;;6086691;23;20014;-84
2022/10/24 11:51:37;;;;;;;7.07;1.38;;;17.50;99.90;;;;;;6087910;23;20725;-85
2022/10/24 11:54:13;;;;;;;4.30;0.98;;;17.40;99.90;;;;;;6086398;23;20425;-84
2022/10/24 11:56:46;;;;;;;7.65;1.50;;;17.30;99.90;;;;;;6086749;23;20014;-84
2022/10/24 11:59:17;;;;;;;3.70;1.25;;;17.20;99.90;;;;;;6087751;23;20013;-84
2022/10/24 12:02:01;;;;;;;4.65;1.20;;;17.30;99.90;;;;;;6086596;23;20338;-85
2022/10/24 12:05:00;;;;;;;6.32;1.35;;;17.30;1.00;;;;;;6088306;23;20026;-85
2022/10/24 12:08:03;;;;;;;5.28;1.42;;;17.30;99.90;;;;;;6090136;23;20089;-84
2022/10/24 12:10:56;;;;;;;4.97;1.10;;;17.30;99.90;;;;;;6086572;23;20463;-84
2022/10/24 12:13:43;;;;;;;4.75;1.30;;;17.20;99.90;;;;;;6087642;23;20414;-84
2022/10/24 12:16:41;;;;;;;4.90;1.30;;;17.40;99.90;;;;;;6087936;23;20073;-84
2022/10/24 12:19:15;;;;;;;5.20;1.67;;;17.50;99.90;;;;;;6087985;23;20616;-84
2022/10/24 12:21:46;;;;;;;4.68;1.05;;;17.60;99.90;;;;;;6109856;23;20395;-84
2022/10/24 12:24:33;;;;;;;5.57;1.40;;;17.60;99.90;;;;;;6109166;23;20053;-84
2022/10/24 12:27:01;;;;;;;2.38;0.90;;;17.50;99.90;;;;;;6085173;23;20362;-84
2022/10/24 12:29:32;;;;;;;4.88;1.20;;;17.40;1.00;;;;;;6090039;23;20021;-85
2022/10/24 12:32:18;;;;;;;8.25;1.10;;;17.40;1.00;;;;;;6086145;23;20105;-85
2022/10/24 12:34:57;;;;;;;5.00;1.10;;;17.40;1.00;;;;;;6085805;23;20672;-84
2022/10/24 12:37:24;;;;;;;6.45;1.55;;;17.30;99.90;;;;;;6110190;23;20076;-84
2022/10/24 12:39:51;;;;;;;3.90;1.10;;;17.20;1.00;;;;;;6084589;23;20026;-84
2022/10/24 12:42:23;;;;;;;4.05;1.25;;;17.00;1.00;;;;;;6084920;23;20018;-84
2022/10/24 12:45:01;;;;;;;3.75;1.15;;;17.10;1.00;;;;;;6086276;23;20025;-84
2022/10/24 12:47:41;;;;;;;6.70;1.40;;;17.10;1.00;;;;;;6085734;23;20539;-84
2022/10/24 12:50:22;;;;;;;5.38;1.10;;;17.00;45.00;;;;;;6086062;23;20085;-85
2022/10/24 12:52:49;;;;;;;5.60;1.30;;;16.90;99.90;;;;;;6111121;23;20017;-84
2022/10/24 12:55:50;;;;;;;6.70;1.83;;;16.80;99.90;;;;;;6083639;23;20017;-84
2022/10/24 12:58:24;;;;;;;6.82;1.55;;;16.90;99.90;;;;;;6085805;23;20021;-85
2022/10/24 13:00:58;;;;;;;5.50;1.67;;;16.90;95.30;;;;;;6110061;23;20022;-84
2022/10/24 13:03:44;;;;;;;5.70;1.35;;;16.70;1.00;;;;;;6084431;23;20060;-84
2022/10/24 13:06:42;;;;;;;6.20;1.58;;;16.80;1.00;;;;;;6085392;23;20018;-84
2022/10/24 13:09:15;;;;;;;6.25;1.60;;;17.20;99.90;;;;;;6082510;23;20017;-84
2022/10/24 13:12:18;;;;;;;5.70;1.00;;;16.90;1.00;;;;;;6082253;23;20479;-85
2022/10/24 13:15:14;;;;;;;7.32;1.50;;;16.90;1.00;;;;;;6026805;23;20534;-84